KKCL/KCL METAR and TAF weather

Enter ICAO airport designator
Station Type Date Time Source
KKCL METAR UTC NOAA

Error!


Station Type Date Time Source
KKCL Decoded METAR UTC NOAA

Error!

Station Type Date Time Source
KKCL TAF 2020/09/10 06:30 UTC NOAA

TAF SKKCL 100430Z 1006/1106 VRB02KT 9999 TAF SKCT020 TAF SKCT100
TEMPO 1009/1013 3000 BR BKN010
BECMG 1018/1020 36012KT PROB40
TEMPO 1021/1024 TTAF SK TAF SKCT017CB TX31/1020Z TN18/1010Z

Example: see airport list